sensor_id;sensor_type;location;lat;lon;timestamp;P1;durP1;ratioP1;P2;durP2;ratioP2
10216;SDS011;5152;59.674;16.838;2023-09-30T00:01:08;2.00;;;1.70;;
10216;SDS011;5152;59.674;16.838;2023-09-30T00:03:35;5.40;;;1.90;;
10216;SDS011;5152;59.674;16.838;2023-09-30T00:06:02;2.60;;;1.77;;
10216;SDS011;5152;59.674;16.838;2023-09-30T00:08:31;2.63;;;1.80;;
10216;SDS011;5152;59.674;16.838;2023-09-30T00:10:58;3.93;;;1.67;;
10216;SDS011;5152;59.674;16.838;2023-09-30T00:13:25;2.33;;;1.73;;
10216;SDS011;5152;59.674;16.838;2023-09-30T00:15:53;2.37;;;1.43;;
10216;SDS011;5152;59.674;16.838;2023-09-30T00:18:20;3.13;;;1.70;;
10216;SDS011;5152;59.674;16.838;2023-09-30T00:20:47;2.30;;;1.50;;
10216;SDS011;5152;59.674;16.838;2023-09-30T00:23:14;3.03;;;1.50;;
10216;SDS011;5152;59.674;16.838;2023-09-30T00:25:42;2.43;;;1.43;;
10216;SDS011;5152;59.674;16.838;2023-09-30T00:28:09;2.90;;;1.50;;
10216;SDS011;5152;59.674;16.838;2023-09-30T00:30:36;2.40;;;1.53;;
10216;SDS011;5152;59.674;16.838;2023-09-30T00:33:03;2.87;;;1.77;;
10216;SDS011;5152;59.674;16.838;2023-09-30T00:35:31;2.00;;;1.50;;
10216;SDS011;5152;59.674;16.838;2023-09-30T00:37:58;2.03;;;1.40;;
10216;SDS011;5152;59.674;16.838;2023-09-30T00:40:25;2.20;;;1.60;;
10216;SDS011;5152;59.674;16.838;2023-09-30T00:42:53;3.00;;;1.50;;
10216;SDS011;5152;59.674;16.838;2023-09-30T00:45:21;3.20;;;1.30;;
10216;SDS011;5152;59.674;16.838;2023-09-30T00:47:47;2.13;;;1.50;;
10216;SDS011;5152;59.674;16.838;2023-09-30T00:50:16;1.07;;;1.00;;
10216;SDS011;5152;59.674;16.838;2023-09-30T00:52:43;1.63;;;1.40;;
10216;SDS011;5152;59.674;16.838;2023-09-30T00:55:11;1.93;;;1.40;;
10216;SDS011;5152;59.674;16.838;2023-09-30T00:57:39;3.83;;;1.60;;
10216;SDS011;5152;59.674;16.838;2023-09-30T01:00:08;1.73;;;1.40;;
10216;SDS011;5152;59.674;16.838;2023-09-30T01:02:37;1.83;;;1.60;;
10216;SDS011;5152;59.674;16.838;2023-09-30T01:05:06;1.93;;;1.40;;
10216;SDS011;5152;59.674;16.838;2023-09-30T01:07:33;6.77;;;1.67;;
10216;SDS011;5152;59.674;16.838;2023-09-30T01:10:00;1.60;;;1.47;;
10216;SDS011;5152;59.674;16.838;2023-09-30T01:12:27;2.63;;;1.47;;
10216;SDS011;5152;59.674;16.838;2023-09-30T01:14:57;1.20;;;1.10;;
10216;SDS011;5152;59.674;16.838;2023-09-30T01:17:26;2.30;;;1.40;;
10216;SDS011;5152;59.674;16.838;2023-09-30T01:19:54;2.10;;;1.30;;
10216;SDS011;5152;59.674;16.838;2023-09-30T01:22:22;3.17;;;1.47;;
10216;SDS011;5152;59.674;16.838;2023-09-30T01:24:49;1.70;;;1.50;;
10216;SDS011;5152;59.674;16.838;2023-09-30T01:27:16;1.37;;;1.20;;
10216;SDS011;5152;59.674;16.838;2023-09-30T01:29:44;1.57;;;1.47;;
10216;SDS011;5152;59.674;16.838;2023-09-30T01:32:12;2.10;;;1.37;;
10216;SDS011;5152;59.674;16.838;2023-09-30T01:34:39;1.50;;;1.10;;
10216;SDS011;5152;59.674;16.838;2023-09-30T01:37:05;1.60;;;1.07;;
10216;SDS011;5152;59.674;16.838;2023-09-30T01:39:34;2.43;;;1.10;;
10216;SDS011;5152;59.674;16.838;2023-09-30T01:42:01;1.40;;;1.00;;
10216;SDS011;5152;59.674;16.838;2023-09-30T01:44:27;1.47;;;1.27;;
10216;SDS011;5152;59.674;16.838;2023-09-30T01:46:55;2.80;;;1.30;;
10216;SDS011;5152;59.674;16.838;2023-09-30T01:49:21;1.57;;;1.20;;
10216;SDS011;5152;59.674;16.838;2023-09-30T01:51:51;1.50;;;1.20;;
10216;SDS011;5152;59.674;16.838;2023-09-30T01:54:18;1.67;;;1.33;;
10216;SDS011;5152;59.674;16.838;2023-09-30T01:56:46;4.93;;;1.40;;
10216;SDS011;5152;59.674;16.838;2023-09-30T01:59:15;2.20;;;1.50;;
10216;SDS011;5152;59.674;16.838;2023-09-30T02:01:43;2.83;;;1.60;;
10216;SDS011;5152;59.674;16.838;2023-09-30T02:04:11;1.63;;;1.13;;
10216;SDS011;5152;59.674;16.838;2023-09-30T02:06:38;1.40;;;1.30;;
10216;SDS011;5152;59.674;16.838;2023-09-30T02:09:05;1.20;;;1.10;;
10216;SDS011;5152;59.674;16.838;2023-09-30T02:11:33;3.33;;;1.20;;
10216;SDS011;5152;59.674;16.838;2023-09-30T02:14:03;3.77;;;1.83;;
10216;SDS011;5152;59.674;16.838;2023-09-30T02:16:31;4.70;;;1.43;;
10216;SDS011;5152;59.674;16.838;2023-09-30T02:18:58;2.60;;;1.63;;
10216;SDS011;5152;59.674;16.838;2023-09-30T02:21:24;1.60;;;1.40;;
10216;SDS011;5152;59.674;16.838;2023-09-30T02:23:52;1.20;;;1.10;;
10216;SDS011;5152;59.674;16.838;2023-09-30T02:26:20;2.03;;;1.43;;
10216;SDS011;5152;59.674;16.838;2023-09-30T02:28:47;7.50;;;2.50;;
10216;SDS011;5152;59.674;16.838;2023-09-30T02:31:16;1.87;;;1.20;;
10216;SDS011;5152;59.674;16.838;2023-09-30T02:33:43;1.20;;;1.03;;
10216;SDS011;5152;59.674;16.838;2023-09-30T02:36:10;3.07;;;1.57;;
10216;SDS011;5152;59.674;16.838;2023-09-30T02:38:38;1.20;;;1.03;;
10216;SDS011;5152;59.674;16.838;2023-09-30T02:41:05;1.80;;;1.37;;
10216;SDS011;5152;59.674;16.838;2023-09-30T02:43:32;3.53;;;1.63;;
10216;SDS011;5152;59.674;16.838;2023-09-30T02:45:59;1.37;;;1.00;;
10216;SDS011;5152;59.674;16.838;2023-09-30T02:48:27;5.23;;;1.73;;
10216;SDS011;5152;59.674;16.838;2023-09-30T02:50:54;3.33;;;1.70;;
10216;SDS011;5152;59.674;16.838;2023-09-30T02:53:21;2.13;;;1.43;;
10216;SDS011;5152;59.674;16.838;2023-09-30T02:55:48;2.37;;;1.40;;
10216;SDS011;5152;59.674;16.838;2023-09-30T02:58:21;2.10;;;1.20;;
10216;SDS011;5152;59.674;16.838;2023-09-30T03:00:48;1.50;;;1.10;;
10216;SDS011;5152;59.674;16.838;2023-09-30T03:03:15;3.83;;;1.93;;
10216;SDS011;5152;59.674;16.838;2023-09-30T03:05:43;1.60;;;1.10;;
10216;SDS011;5152;59.674;16.838;2023-09-30T03:08:10;2.43;;;1.20;;
10216;SDS011;5152;59.674;16.838;2023-09-30T03:10:37;2.40;;;1.40;;
10216;SDS011;5152;59.674;16.838;2023-09-30T03:13:05;4.67;;;2.30;;
10216;SDS011;5152;59.674;16.838;2023-09-30T03:15:34;7.60;;;2.97;;
10216;SDS011;5152;59.674;16.838;2023-09-30T03:18:01;1.97;;;1.33;;
10216;SDS011;5152;59.674;16.838;2023-09-30T03:20:28;1.53;;;1.10;;
10216;SDS011;5152;59.674;16.838;2023-09-30T03:22:57;1.77;;;1.20;;
10216;SDS011;5152;59.674;16.838;2023-09-30T03:25:24;4.03;;;2.00;;
10216;SDS011;5152;59.674;16.838;2023-09-30T03:27:52;2.70;;;1.20;;
10216;SDS011;5152;59.674;16.838;2023-09-30T03:30:19;3.80;;;2.03;;
10216;SDS011;5152;59.674;16.838;2023-09-30T03:32:46;7.20;;;2.80;;
10216;SDS011;5152;59.674;16.838;2023-09-30T03:35:13;10.53;;;3.73;;
10216;SDS011;5152;59.674;16.838;2023-09-30T03:37:42;8.47;;;3.00;;
10216;SDS011;5152;59.674;16.838;2023-09-30T03:40:10;5.87;;;3.37;;
10216;SDS011;5152;59.674;16.838;2023-09-30T03:42:39;9.37;;;3.00;;
10216;SDS011;5152;59.674;16.838;2023-09-30T03:45:07;8.70;;;2.80;;
10216;SDS011;5152;59.674;16.838;2023-09-30T03:47:35;1.27;;;1.00;;
10216;SDS011;5152;59.674;16.838;2023-09-30T03:50:02;10.20;;;3.33;;
10216;SDS011;5152;59.674;16.838;2023-09-30T03:52:30;5.27;;;2.80;;
10216;SDS011;5152;59.674;16.838;2023-09-30T03:54:58;7.07;;;2.37;;
10216;SDS011;5152;59.674;16.838;2023-09-30T03:57:30;1.77;;;1.50;;
10216;SDS011;5152;59.674;16.838;2023-09-30T03:59:57;4.93;;;1.90;;
10216;SDS011;5152;59.674;16.838;2023-09-30T04:02:23;7.57;;;2.90;;
10216;SDS011;5152;59.674;16.838;2023-09-30T04:04:50;7.23;;;2.93;;
10216;SDS011;5152;59.674;16.838;2023-09-30T04:07:19;3.53;;;2.10;;
10216;SDS011;5152;59.674;16.838;2023-09-30T04:09:46;8.27;;;3.67;;
10216;SDS011;5152;59.674;16.838;2023-09-30T04:12:13;8.87;;;3.00;;
10216;SDS011;5152;59.674;16.838;2023-09-30T04:14:41;10.53;;;3.57;;
10216;SDS011;5152;59.674;16.838;2023-09-30T04:17:09;8.83;;;3.07;;
10216;SDS011;5152;59.674;16.838;2023-09-30T04:19:36;12.00;;;2.93;;
10216;SDS011;5152;59.674;16.838;2023-09-30T04:22:03;5.67;;;1.83;;
10216;SDS011;5152;59.674;16.838;2023-09-30T04:24:30;4.33;;;2.40;;
10216;SDS011;5152;59.674;16.838;2023-09-30T04:26:57;4.87;;;2.07;;
10216;SDS011;5152;59.674;16.838;2023-09-30T04:29:28;3.07;;;1.47;;
10216;SDS011;5152;59.674;16.838;2023-09-30T04:31:57;5.07;;;2.73;;
10216;SDS011;5152;59.674;16.838;2023-09-30T04:34:24;8.07;;;3.03;;
10216;SDS011;5152;59.674;16.838;2023-09-30T04:36:52;5.10;;;2.10;;
10216;SDS011;5152;59.674;16.838;2023-09-30T04:39:19;5.33;;;2.33;;
10216;SDS011;5152;59.674;16.838;2023-09-30T04:41:46;3.87;;;1.50;;
10216;SDS011;5152;59.674;16.838;2023-09-30T04:44:13;4.17;;;2.00;;
10216;SDS011;5152;59.674;16.838;2023-09-30T04:46:40;5.43;;;2.37;;
10216;SDS011;5152;59.674;16.838;2023-09-30T04:49:12;3.60;;;2.43;;
10216;SDS011;5152;59.674;16.838;2023-09-30T04:51:40;13.47;;;3.80;;
10216;SDS011;5152;59.674;16.838;2023-09-30T04:54:07;4.47;;;1.77;;
10216;SDS011;5152;59.674;16.838;2023-09-30T04:56:35;5.13;;;2.47;;
10216;SDS011;5152;59.674;16.838;2023-09-30T04:59:04;4.60;;;1.87;;
10216;SDS011;5152;59.674;16.838;2023-09-30T05:01:31;7.37;;;2.67;;
10216;SDS011;5152;59.674;16.838;2023-09-30T05:03:59;4.37;;;1.70;;
10216;SDS011;5152;59.674;16.838;2023-09-30T05:06:27;8.33;;;2.53;;
10216;SDS011;5152;59.674;16.838;2023-09-30T05:08:54;10.97;;;3.70;;
10216;SDS011;5152;59.674;16.838;2023-09-30T05:11:21;5.90;;;2.20;;
10216;SDS011;5152;59.674;16.838;2023-09-30T05:13:49;6.13;;;2.43;;
10216;SDS011;5152;59.674;16.838;2023-09-30T05:16:16;8.70;;;3.07;;
10216;SDS011;5152;59.674;16.838;2023-09-30T05:18:43;4.80;;;2.47;;
10216;SDS011;5152;59.674;16.838;2023-09-30T05:21:10;6.70;;;2.90;;
10216;SDS011;5152;59.674;16.838;2023-09-30T05:23:38;9.97;;;2.80;;
10216;SDS011;5152;59.674;16.838;2023-09-30T05:26:05;3.67;;;1.73;;
10216;SDS011;5152;59.674;16.838;2023-09-30T05:28:32;4.43;;;2.40;;
10216;SDS011;5152;59.674;16.838;2023-09-30T05:30:59;6.80;;;2.37;;
10216;SDS011;5152;59.674;16.838;2023-09-30T05:33:26;10.87;;;3.30;;
10216;SDS011;5152;59.674;16.838;2023-09-30T05:35:53;6.30;;;2.27;;
10216;SDS011;5152;59.674;16.838;2023-09-30T05:38:21;5.97;;;2.23;;
10216;SDS011;5152;59.674;16.838;2023-09-30T05:40:49;4.13;;;2.10;;
10216;SDS011;5152;59.674;16.838;2023-09-30T05:43:17;4.33;;;1.90;;
10216;SDS011;5152;59.674;16.838;2023-09-30T05:45:44;7.20;;;2.40;;
10216;SDS011;5152;59.674;16.838;2023-09-30T05:48:14;7.47;;;2.70;;
10216;SDS011;5152;59.674;16.838;2023-09-30T05:50:41;3.73;;;1.80;;
10216;SDS011;5152;59.674;16.838;2023-09-30T05:53:08;3.00;;;1.80;;
10216;SDS011;5152;59.674;16.838;2023-09-30T05:55:36;10.37;;;3.10;;
10216;SDS011;5152;59.674;16.838;2023-09-30T05:58:05;4.47;;;2.17;;
10216;SDS011;5152;59.674;16.838;2023-09-30T06:00:32;5.30;;;2.10;;
10216;SDS011;5152;59.674;16.838;2023-09-30T06:03:00;3.90;;;1.97;;
10216;SDS011;5152;59.674;16.838;2023-09-30T06:05:29;5.07;;;2.10;;
10216;SDS011;5152;59.674;16.838;2023-09-30T06:07:57;3.50;;;2.27;;
10216;SDS011;5152;59.674;16.838;2023-09-30T06:10:24;7.77;;;2.80;;
10216;SDS011;5152;59.674;16.838;2023-09-30T06:12:51;5.43;;;1.90;;
10216;SDS011;5152;59.674;16.838;2023-09-30T06:15:21;9.00;;;2.77;;
10216;SDS011;5152;59.674;16.838;2023-09-30T06:17:51;9.33;;;3.30;;
10216;SDS011;5152;59.674;16.838;2023-09-30T06:20:18;9.33;;;2.83;;
10216;SDS011;5152;59.674;16.838;2023-09-30T06:22:47;9.90;;;2.63;;
10216;SDS011;5152;59.674;16.838;2023-09-30T06:25:14;4.57;;;1.80;;
10216;SDS011;5152;59.674;16.838;2023-09-30T06:27:42;8.17;;;2.80;;
10216;SDS011;5152;59.674;16.838;2023-09-30T06:30:09;4.57;;;2.40;;
10216;SDS011;5152;59.674;16.838;2023-09-30T06:32:40;4.70;;;1.97;;
10216;SDS011;5152;59.674;16.838;2023-09-30T06:35:07;7.13;;;2.27;;
10216;SDS011;5152;59.674;16.838;2023-09-30T06:37:35;11.30;;;2.77;;
10216;SDS011;5152;59.674;16.838;2023-09-30T06:40:03;5.47;;;2.67;;
10216;SDS011;5152;59.674;16.838;2023-09-30T06:42:33;9.27;;;2.80;;
10216;SDS011;5152;59.674;16.838;2023-09-30T06:45:00;13.43;;;3.57;;
10216;SDS011;5152;59.674;16.838;2023-09-30T06:47:30;5.60;;;2.43;;
10216;SDS011;5152;59.674;16.838;2023-09-30T06:50:00;8.30;;;2.93;;
10216;SDS011;5152;59.674;16.838;2023-09-30T06:52:32;5.10;;;2.03;;
10216;SDS011;5152;59.674;16.838;2023-09-30T06:55:00;9.30;;;2.83;;
10216;SDS011;5152;59.674;16.838;2023-09-30T06:57:27;7.60;;;2.53;;
10216;SDS011;5152;59.674;16.838;2023-09-30T06:59:54;9.93;;;2.77;;
10216;SDS011;5152;59.674;16.838;2023-09-30T07:02:21;8.40;;;2.40;;
10216;SDS011;5152;59.674;16.838;2023-09-30T07:04:49;12.03;;;3.53;;
10216;SDS011;5152;59.674;16.838;2023-09-30T07:07:18;7.23;;;2.57;;
10216;SDS011;5152;59.674;16.838;2023-09-30T07:09:45;3.93;;;2.07;;
10216;SDS011;5152;59.674;16.838;2023-09-30T07:12:12;6.63;;;2.33;;
10216;SDS011;5152;59.674;16.838;2023-09-30T07:14:39;4.97;;;2.20;;
10216;SDS011;5152;59.674;16.838;2023-09-30T07:17:06;3.07;;;2.03;;
10216;SDS011;5152;59.674;16.838;2023-09-30T07:19:33;12.57;;;3.57;;
10216;SDS011;5152;59.674;16.838;2023-09-30T07:21:59;6.93;;;2.57;;
10216;SDS011;5152;59.674;16.838;2023-09-30T07:24:29;9.37;;;2.93;;
10216;SDS011;5152;59.674;16.838;2023-09-30T07:26:56;5.27;;;2.17;;
10216;SDS011;5152;59.674;16.838;2023-09-30T07:29:23;12.83;;;3.17;;
10216;SDS011;5152;59.674;16.838;2023-09-30T07:31:50;5.90;;;2.17;;
10216;SDS011;5152;59.674;16.838;2023-09-30T07:34:17;3.77;;;2.23;;
10216;SDS011;5152;59.674;16.838;2023-09-30T07:36:44;7.70;;;2.50;;
10216;SDS011;5152;59.674;16.838;2023-09-30T07:39:12;6.83;;;2.80;;
10216;SDS011;5152;59.674;16.838;2023-09-30T07:41:40;7.63;;;2.27;;
10216;SDS011;5152;59.674;16.838;2023-09-30T07:44:07;5.53;;;2.43;;
10216;SDS011;5152;59.674;16.838;2023-09-30T07:46:34;4.43;;;2.10;;
10216;SDS011;5152;59.674;16.838;2023-09-30T07:49:01;9.00;;;2.40;;
10216;SDS011;5152;59.674;16.838;2023-09-30T07:51:28;9.10;;;2.83;;
10216;SDS011;5152;59.674;16.838;2023-09-30T07:53:56;6.87;;;2.43;;
10216;SDS011;5152;59.674;16.838;2023-09-30T07:56:23;11.90;;;3.03;;
10216;SDS011;5152;59.674;16.838;2023-09-30T07:58:52;9.30;;;2.40;;
10216;SDS011;5152;59.674;16.838;2023-09-30T08:01:19;15.70;;;3.37;;
10216;SDS011;5152;59.674;16.838;2023-09-30T08:03:46;5.43;;;2.10;;
10216;SDS011;5152;59.674;16.838;2023-09-30T08:06:13;8.30;;;2.80;;
10216;SDS011;5152;59.674;16.838;2023-09-30T08:08:40;13.10;;;3.37;;
10216;SDS011;5152;59.674;16.838;2023-09-30T08:11:07;8.70;;;2.53;;
10216;SDS011;5152;59.674;16.838;2023-09-30T08:13:34;6.93;;;2.20;;
10216;SDS011;5152;59.674;16.838;2023-09-30T08:16:02;6.60;;;2.33;;
10216;SDS011;5152;59.674;16.838;2023-09-30T08:18:29;4.57;;;1.93;;
10216;SDS011;5152;59.674;16.838;2023-09-30T08:20:57;4.00;;;2.00;;
10216;SDS011;5152;59.674;16.838;2023-09-30T08:23:24;4.63;;;2.00;;
10216;SDS011;5152;59.674;16.838;2023-09-30T08:25:51;10.43;;;2.73;;
10216;SDS011;5152;59.674;16.838;2023-09-30T08:28:19;8.87;;;2.73;;
10216;SDS011;5152;59.674;16.838;2023-09-30T08:30:46;11.67;;;3.37;;
10216;SDS011;5152;59.674;16.838;2023-09-30T08:33:15;18.70;;;3.80;;
10216;SDS011;5152;59.674;16.838;2023-09-30T08:35:42;14.53;;;3.40;;
10216;SDS011;5152;59.674;16.838;2023-09-30T08:38:09;7.70;;;2.63;;
10216;SDS011;5152;59.674;16.838;2023-09-30T08:40:36;9.30;;;3.10;;
10216;SDS011;5152;59.674;16.838;2023-09-30T08:43:04;9.27;;;3.00;;
10216;SDS011;5152;59.674;16.838;2023-09-30T08:45:31;15.30;;;3.03;;
10216;SDS011;5152;59.674;16.838;2023-09-30T08:47:59;8.60;;;2.57;;
10216;SDS011;5152;59.674;16.838;2023-09-30T08:50:32;19.20;;;3.33;;
10216;SDS011;5152;59.674;16.838;2023-09-30T08:52:59;13.90;;;3.07;;
10216;SDS011;5152;59.674;16.838;2023-09-30T08:55:27;18.07;;;3.43;;
10216;SDS011;5152;59.674;16.838;2023-09-30T08:57:54;10.23;;;2.83;;
10216;SDS011;5152;59.674;16.838;2023-09-30T09:00:22;15.17;;;2.63;;
10216;SDS011;5152;59.674;16.838;2023-09-30T09:02:49;9.80;;;2.60;;
10216;SDS011;5152;59.674;16.838;2023-09-30T09:05:16;8.33;;;2.87;;
10216;SDS011;5152;59.674;16.838;2023-09-30T09:07:45;10.23;;;2.50;;
10216;SDS011;5152;59.674;16.838;2023-09-30T09:10:12;7.07;;;2.50;;
10216;SDS011;5152;59.674;16.838;2023-09-30T09:12:40;6.63;;;2.43;;
10216;SDS011;5152;59.674;16.838;2023-09-30T09:15:08;12.60;;;2.50;;
10216;SDS011;5152;59.674;16.838;2023-09-30T09:17:46;9.67;;;2.50;;
10216;SDS011;5152;59.674;16.838;2023-09-30T09:20:16;6.70;;;2.40;;
10216;SDS011;5152;59.674;16.838;2023-09-30T09:22:47;10.73;;;2.87;;
10216;SDS011;5152;59.674;16.838;2023-09-30T09:25:18;7.27;;;2.70;;
10216;SDS011;5152;59.674;16.838;2023-09-30T09:27:45;5.00;;;2.03;;
10216;SDS011;5152;59.674;16.838;2023-09-30T09:30:15;13.83;;;2.40;;
10216;SDS011;5152;59.674;16.838;2023-09-30T09:32:51;15.17;;;2.20;;
10216;SDS011;5152;59.674;16.838;2023-09-30T09:35:20;6.50;;;1.90;;
10216;SDS011;5152;59.674;16.838;2023-09-30T09:37:55;9.93;;;2.50;;
10216;SDS011;5152;59.674;16.838;2023-09-30T09:40:26;6.07;;;2.23;;
10216;SDS011;5152;59.674;16.838;2023-09-30T09:42:52;6.10;;;1.90;;
10216;SDS011;5152;59.674;16.838;2023-09-30T09:45:20;5.50;;;1.97;;
10216;SDS011;5152;59.674;16.838;2023-09-30T09:47:48;8.63;;;2.50;;
10216;SDS011;5152;59.674;16.838;2023-09-30T09:50:16;7.10;;;2.70;;
10216;SDS011;5152;59.674;16.838;2023-09-30T09:52:43;7.93;;;2.63;;
10216;SDS011;5152;59.674;16.838;2023-09-30T09:55:12;4.40;;;2.00;;
10216;SDS011;5152;59.674;16.838;2023-09-30T09:57:41;4.97;;;1.67;;
10216;SDS011;5152;59.674;16.838;2023-09-30T10:00:10;8.33;;;2.57;;
10216;SDS011;5152;59.674;16.838;2023-09-30T10:02:39;7.67;;;2.90;;
10216;SDS011;5152;59.674;16.838;2023-09-30T10:05:06;13.17;;;2.93;;
10216;SDS011;5152;59.674;16.838;2023-09-30T10:07:34;8.97;;;1.97;;
10216;SDS011;5152;59.674;16.838;2023-09-30T10:10:05;4.93;;;2.50;;
10216;SDS011;5152;59.674;16.838;2023-09-30T10:12:40;8.67;;;2.43;;
10216;SDS011;5152;59.674;16.838;2023-09-30T10:18:05;11.87;;;2.50;;
10216;SDS011;5152;59.674;16.838;2023-09-30T10:20:33;5.63;;;2.43;;
10216;SDS011;5152;59.674;16.838;2023-09-30T10:23:19;4.67;;;1.90;;
10216;SDS011;5152;59.674;16.838;2023-09-30T10:25:47;5.70;;;2.20;;
10216;SDS011;5152;59.674;16.838;2023-09-30T10:31:12;8.50;;;2.67;;
10216;SDS011;5152;59.674;16.838;2023-09-30T10:36:46;7.37;;;2.20;;
10216;SDS011;5152;59.674;16.838;2023-09-30T10:39:16;5.77;;;2.20;;
10216;SDS011;5152;59.674;16.838;2023-09-30T10:48:33;16.83;;;2.37;;
10216;SDS011;5152;59.674;16.838;2023-09-30T10:51:12;7.27;;;2.23;;
10216;SDS011;5152;59.674;16.838;2023-09-30T10:53:44;5.97;;;2.17;;
10216;SDS011;5152;59.674;16.838;2023-09-30T10:56:12;7.80;;;2.10;;
10216;SDS011;5152;59.674;16.838;2023-09-30T10:58:41;6.20;;;2.00;;
10216;SDS011;5152;59.674;16.838;2023-09-30T11:01:10;7.37;;;2.27;;
10216;SDS011;5152;59.674;16.838;2023-09-30T11:03:38;5.33;;;1.80;;
10216;SDS011;5152;59.674;16.838;2023-09-30T11:06:05;3.97;;;1.90;;
10216;SDS011;5152;59.674;16.838;2023-09-30T11:08:32;3.77;;;1.70;;
10216;SDS011;5152;59.674;16.838;2023-09-30T11:10:59;5.07;;;1.73;;
10216;SDS011;5152;59.674;16.838;2023-09-30T11:13:31;3.60;;;1.70;;
10216;SDS011;5152;59.674;16.838;2023-09-30T11:16:00;4.30;;;1.67;;
10216;SDS011;5152;59.674;16.838;2023-09-30T11:18:29;3.37;;;1.60;;
10216;SDS011;5152;59.674;16.838;2023-09-30T11:21:06;6.13;;;1.80;;
10216;SDS011;5152;59.674;16.838;2023-09-30T11:23:33;5.73;;;2.07;;
10216;SDS011;5152;59.674;16.838;2023-09-30T11:26:01;5.60;;;1.93;;
10216;SDS011;5152;59.674;16.838;2023-09-30T11:28:35;5.03;;;1.93;;
10216;SDS011;5152;59.674;16.838;2023-09-30T11:31:03;5.63;;;2.10;;
10216;SDS011;5152;59.674;16.838;2023-09-30T11:33:32;6.23;;;2.03;;
10216;SDS011;5152;59.674;16.838;2023-09-30T11:36:01;5.00;;;2.13;;
10216;SDS011;5152;59.674;16.838;2023-09-30T11:38:29;4.90;;;1.60;;
10216;SDS011;5152;59.674;16.838;2023-09-30T11:40:59;7.83;;;1.70;;
10216;SDS011;5152;59.674;16.838;2023-09-30T11:43:27;7.70;;;2.00;;
10216;SDS011;5152;59.674;16.838;2023-09-30T11:46:03;8.50;;;2.50;;
10216;SDS011;5152;59.674;16.838;2023-09-30T11:48:32;9.33;;;2.37;;
10216;SDS011;5152;59.674;16.838;2023-09-30T11:51:00;4.90;;;1.90;;
10216;SDS011;5152;59.674;16.838;2023-09-30T11:53:28;5.63;;;2.10;;
10216;SDS011;5152;59.674;16.838;2023-09-30T11:55:56;6.20;;;2.13;;
10216;SDS011;5152;59.674;16.838;2023-09-30T11:58:24;5.13;;;1.67;;
10216;SDS011;5152;59.674;16.838;2023-09-30T12:00:53;8.00;;;1.90;;
10216;SDS011;5152;59.674;16.838;2023-09-30T12:03:22;16.67;;;1.80;;
10216;SDS011;5152;59.674;16.838;2023-09-30T12:05:52;9.53;;;1.60;;
10216;SDS011;5152;59.674;16.838;2023-09-30T12:08:20;8.10;;;1.67;;
10216;SDS011;5152;59.674;16.838;2023-09-30T12:10:47;5.63;;;1.77;;
10216;SDS011;5152;59.674;16.838;2023-09-30T12:13:14;6.77;;;1.97;;
10216;SDS011;5152;59.674;16.838;2023-09-30T12:15:41;4.47;;;1.60;;
10216;SDS011;5152;59.674;16.838;2023-09-30T12:18:08;7.87;;;1.57;;
10216;SDS011;5152;59.674;16.838;2023-09-30T12:20:35;3.07;;;1.27;;
10216;SDS011;5152;59.674;16.838;2023-09-30T12:23:04;6.33;;;1.70;;
10216;SDS011;5152;59.674;16.838;2023-09-30T12:25:31;3.87;;;1.37;;
10216;SDS011;5152;59.674;16.838;2023-09-30T12:27:58;10.73;;;1.53;;
10216;SDS011;5152;59.674;16.838;2023-09-30T12:30:25;4.73;;;1.60;;
10216;SDS011;5152;59.674;16.838;2023-09-30T12:32:52;6.87;;;1.70;;
10216;SDS011;5152;59.674;16.838;2023-09-30T12:35:20;6.43;;;1.50;;
10216;SDS011;5152;59.674;16.838;2023-09-30T12:37:47;3.37;;;1.47;;
10216;SDS011;5152;59.674;16.838;2023-09-30T12:40:15;4.43;;;1.30;;
10216;SDS011;5152;59.674;16.838;2023-09-30T12:42:43;6.27;;;1.80;;
10216;SDS011;5152;59.674;16.838;2023-09-30T12:45:10;4.07;;;1.43;;
10216;SDS011;5152;59.674;16.838;2023-09-30T12:47:38;6.63;;;1.80;;
10216;SDS011;5152;59.674;16.838;2023-09-30T12:50:05;4.17;;;1.50;;
10216;SDS011;5152;59.674;16.838;2023-09-30T12:52:34;4.63;;;1.70;;
10216;SDS011;5152;59.674;16.838;2023-09-30T12:55:03;6.03;;;1.60;;
10216;SDS011;5152;59.674;16.838;2023-09-30T12:57:32;2.47;;;1.37;;
10216;SDS011;5152;59.674;16.838;2023-09-30T12:59:59;5.47;;;1.50;;
10216;SDS011;5152;59.674;16.838;2023-09-30T13:02:26;2.93;;;1.43;;
10216;SDS011;5152;59.674;16.838;2023-09-30T13:04:53;8.40;;;1.33;;
10216;SDS011;5152;59.674;16.838;2023-09-30T13:07:20;4.57;;;1.00;;
10216;SDS011;5152;59.674;16.838;2023-09-30T13:09:47;3.07;;;1.23;;
10216;SDS011;5152;59.674;16.838;2023-09-30T13:12:13;4.40;;;1.53;;
10216;SDS011;5152;59.674;16.838;2023-09-30T13:14:43;2.07;;;1.20;;
10216;SDS011;5152;59.674;16.838;2023-09-30T13:17:10;4.23;;;1.27;;
10216;SDS011;5152;59.674;16.838;2023-09-30T13:19:39;4.23;;;1.10;;
10216;SDS011;5152;59.674;16.838;2023-09-30T13:22:06;2.67;;;1.43;;
10216;SDS011;5152;59.674;16.838;2023-09-30T13:24:33;3.63;;;1.00;;
10216;SDS011;5152;59.674;16.838;2023-09-30T13:27:04;3.83;;;1.17;;
10216;SDS011;5152;59.674;16.838;2023-09-30T13:29:31;3.60;;;1.20;;
10216;SDS011;5152;59.674;16.838;2023-09-30T13:31:59;2.27;;;1.17;;
10216;SDS011;5152;59.674;16.838;2023-09-30T13:34:26;2.93;;;1.10;;
10216;SDS011;5152;59.674;16.838;2023-09-30T13:36:54;1.10;;;0.90;;
10216;SDS011;5152;59.674;16.838;2023-09-30T13:39:21;5.50;;;1.10;;
10216;SDS011;5152;59.674;16.838;2023-09-30T13:41:49;1.33;;;0.97;;
10216;SDS011;5152;59.674;16.838;2023-09-30T13:44:16;1.97;;;1.13;;
10216;SDS011;5152;59.674;16.838;2023-09-30T13:46:43;1.20;;;1.00;;
10216;SDS011;5152;59.674;16.838;2023-09-30T13:49:12;4.70;;;1.20;;
10216;SDS011;5152;59.674;16.838;2023-09-30T13:51:39;1.80;;;0.70;;
10216;SDS011;5152;59.674;16.838;2023-09-30T13:54:05;3.90;;;1.13;;
10216;SDS011;5152;59.674;16.838;2023-09-30T13:56:33;2.40;;;1.20;;
10216;SDS011;5152;59.674;16.838;2023-09-30T13:59:00;3.87;;;1.50;;
10216;SDS011;5152;59.674;16.838;2023-09-30T14:01:27;2.07;;;1.17;;
10216;SDS011;5152;59.674;16.838;2023-09-30T14:03:54;4.03;;;1.10;;
10216;SDS011;5152;59.674;16.838;2023-09-30T14:06:23;2.80;;;1.40;;
10216;SDS011;5152;59.674;16.838;2023-09-30T14:08:51;2.03;;;1.07;;
10216;SDS011;5152;59.674;16.838;2023-09-30T14:11:18;2.40;;;1.37;;
10216;SDS011;5152;59.674;16.838;2023-09-30T14:13:45;2.93;;;1.47;;
10216;SDS011;5152;59.674;16.838;2023-09-30T14:16:11;1.30;;;1.00;;
10216;SDS011;5152;59.674;16.838;2023-09-30T14:18:38;4.97;;;0.93;;
10216;SDS011;5152;59.674;16.838;2023-09-30T14:21:05;7.57;;;1.13;;
10216;SDS011;5152;59.674;16.838;2023-09-30T14:23:34;9.87;;;1.13;;
10216;SDS011;5152;59.674;16.838;2023-09-30T14:26:00;11.37;;;1.23;;
10216;SDS011;5152;59.674;16.838;2023-09-30T14:28:31;2.00;;;1.00;;
10216;SDS011;5152;59.674;16.838;2023-09-30T14:31:02;14.67;;;2.07;;
10216;SDS011;5152;59.674;16.838;2023-09-30T14:33:29;5.03;;;1.53;;
10216;SDS011;5152;59.674;16.838;2023-09-30T14:35:56;3.73;;;1.30;;
10216;SDS011;5152;59.674;16.838;2023-09-30T14:38:22;1.90;;;1.00;;
10216;SDS011;5152;59.674;16.838;2023-09-30T14:40:52;2.00;;;0.87;;
10216;SDS011;5152;59.674;16.838;2023-09-30T14:43:19;4.93;;;1.30;;
10216;SDS011;5152;59.674;16.838;2023-09-30T14:45:45;3.67;;;1.00;;
10216;SDS011;5152;59.674;16.838;2023-09-30T14:48:12;8.37;;;1.23;;
10216;SDS011;5152;59.674;16.838;2023-09-30T14:50:47;2.47;;;1.20;;
10216;SDS011;5152;59.674;16.838;2023-09-30T14:53:15;4.23;;;1.00;;
10216;SDS011;5152;59.674;16.838;2023-09-30T14:55:42;7.17;;;1.03;;
10216;SDS011;5152;59.674;16.838;2023-09-30T14:58:10;1.17;;;0.83;;
10216;SDS011;5152;59.674;16.838;2023-09-30T15:00:37;8.70;;;1.30;;
10216;SDS011;5152;59.674;16.838;2023-09-30T15:03:04;2.73;;;0.80;;
10216;SDS011;5152;59.674;16.838;2023-09-30T15:05:31;2.13;;;0.80;;